Time;durP1;ratioP1;P1;durP2;ratioP2;P2;SDS_P1;SDS_P2;PMS_P1;PMS_P2;Temp;Humidity;BMP_temperature;BMP_pressure;BME280_temperature;BME280_humidity;BME280_pressure;Samples;Min_cycle;Max_cycle;Signal;HPM_P1;HPM_P2
2022/03/24 00:02:03;;;;;;;26.65;12.88;;;;;;;;;;5093556;27;20052;-75
2022/03/24 00:04:34;;;;;;;25.77;12.77;;;;;;;;;;5074341;27;20522;-75
2022/03/24 00:07:06;;;;;;;24.05;11.98;;;;;;;;;;5071407;27;20054;-75
2022/03/24 00:09:33;;;;;;;26.20;11.35;;;;;;;;;;5072339;27;20032;-76
2022/03/24 00:12:01;;;;;;;25.52;12.05;;;;;;;;;;5072590;27;20044;-76
2022/03/24 00:14:35;;;;;;;22.85;11.90;;;;;;;;;;5091799;27;20510;-76
2022/03/24 00:17:11;;;;;;;24.95;11.88;;;;;;;;;;5093765;27;20597;-76
2022/03/24 00:19:56;;;;;;;26.17;11.88;;;;;;;;;;5091048;27;20029;-76
2022/03/24 00:22:23;;;;;;;22.88;12.80;;;;;;;;;;5066963;28;20057;-76
2022/03/24 00:24:52;;;;;;;24.42;12.40;;;;;;;;;;5068528;28;20052;-75
2022/03/24 00:27:19;;;;;;;20.38;10.63;;;;;;;;;;5063374;28;20593;-76
2022/03/24 00:29:47;;;;;;;23.02;12.57;;;;;;;;;;5070209;28;20605;-76
2022/03/24 00:32:16;;;;;;;28.10;11.85;;;;;;;;;;5072151;28;20040;-76
2022/03/24 00:34:43;;;;;;;27.30;12.55;;;;;;;;;;5064681;28;20048;-76
2022/03/24 00:37:11;;;;;;;24.25;12.23;;;;;;;;;;5070917;28;20047;-75
2022/03/24 00:39:37;;;;;;;24.20;11.73;;;;;;;;;;5066676;28;20953;-76
2022/03/24 00:42:07;;;;;;;20.85;11.43;;;;;;;;;;5060012;28;20738;-76
2022/03/24 00:44:33;;;;;;;25.90;11.38;;;;;;;;;;5071159;28;20044;-76
2022/03/24 00:46:59;;;;;;;24.80;11.90;;;;;;;;;;5068771;28;20142;-75
2022/03/24 00:49:26;;;;;;;26.27;12.95;;;;;;;;;;5065937;28;20949;-76
2022/03/24 00:51:52;;;;;;;22.27;11.40;;;;;;;;;;5067690;28;20053;-76
2022/03/24 00:54:20;;;;;;;21.23;12.02;;;;;;;;;;5075666;28;20048;-76
2022/03/24 00:56:48;;;;;;;25.83;11.32;;;;;;;;;;5064378;28;20040;-76
2022/03/24 00:59:14;;;;;;;23.70;11.50;;;;;;;;;;5067235;28;20138;-76
2022/03/24 01:01:41;;;;;;;25.85;12.57;;;;;;;;;;5065904;28;20092;-75
2022/03/24 01:04:07;;;;;;;30.58;12.00;;;;;;;;;;5070161;28;20049;-76
2022/03/24 01:06:34;;;;;;;21.65;11.30;;;;;;;;;;5066965;28;20114;-75
2022/03/24 01:09:04;;;;;;;25.13;11.00;;;;;;;;;;5068358;28;20037;-75
2022/03/24 01:11:31;;;;;;;22.08;12.85;;;;;;;;;;5069270;28;20040;-76
2022/03/24 01:13:57;;;;;;;24.65;13.27;;;;;;;;;;5065815;28;20454;-75
2022/03/24 01:16:24;;;;;;;22.88;11.60;;;;;;;;;;5071622;28;20879;-75
2022/03/24 01:18:50;;;;;;;26.10;11.45;;;;;;;;;;5066331;28;20040;-75
2022/03/24 01:21:17;;;;;;;25.15;11.77;;;;;;;;;;5071677;28;20033;-76
2022/03/24 01:23:46;;;;;;;21.80;10.65;;;;;;;;;;5066814;28;20060;-76
2022/03/24 01:26:12;;;;;;;30.88;12.45;;;;;;;;;;5069735;28;20055;-75
2022/03/24 01:28:41;;;;;;;22.70;12.15;;;;;;;;;;5067601;28;20047;-76
2022/03/24 01:31:08;;;;;;;23.27;10.60;;;;;;;;;;5067358;28;20132;-75
2022/03/24 01:33:37;;;;;;;23.23;11.90;;;;;;;;;;5068797;28;20044;-76
2022/03/24 01:36:04;;;;;;;24.40;10.88;;;;;;;;;;5069723;28;20127;-75
2022/03/24 01:38:30;;;;;;;22.60;13.10;;;;;;;;;;5070350;28;20037;-76
2022/03/24 01:40:58;;;;;;;28.55;12.63;;;;;;;;;;5068476;28;20091;-76
2022/03/24 01:43:25;;;;;;;25.48;12.75;;;;;;;;;;5069717;28;20131;-74
2022/03/24 01:45:51;;;;;;;24.00;12.35;;;;;;;;;;5070583;28;20051;-76
2022/03/24 01:48:17;;;;;;;24.60;12.07;;;;;;;;;;5071085;28;20045;-76
2022/03/24 01:50:44;;;;;;;24.40;12.43;;;;;;;;;;5066612;28;20071;-75
2022/03/24 01:53:12;;;;;;;24.80;12.80;;;;;;;;;;5071632;28;20123;-76
2022/03/24 01:55:38;;;;;;;22.83;11.07;;;;;;;;;;5066180;28;20083;-75
2022/03/24 01:58:05;;;;;;;29.00;11.55;;;;;;;;;;5065365;28;20041;-74
2022/03/24 02:00:31;;;;;;;22.35;11.18;;;;;;;;;;5068476;28;20040;-75
2022/03/24 02:03:01;;;;;;;26.73;11.93;;;;;;;;;;5059782;28;20099;-75
2022/03/24 02:05:29;;;;;;;20.98;10.02;;;;;;;;;;5065579;28;20133;-75
2022/03/24 02:07:55;;;;;;;22.27;12.10;;;;;;;;;;5063756;28;20129;-73
2022/03/24 02:10:21;;;;;;;22.15;12.00;;;;;;;;;;5068134;28;20040;-75
2022/03/24 02:12:47;;;;;;;23.70;11.10;;;;;;;;;;5067829;28;20048;-75
2022/03/24 02:15:15;;;;;;;23.73;12.35;;;;;;;;;;5068751;28;20053;-75
2022/03/24 02:17:41;;;;;;;24.23;11.55;;;;;;;;;;5066589;28;20071;-75
2022/03/24 02:20:09;;;;;;;19.90;11.27;;;;;;;;;;5074108;28;20036;-75
2022/03/24 02:22:38;;;;;;;23.48;12.70;;;;;;;;;;5073214;28;20546;-75
2022/03/24 02:25:07;;;;;;;21.20;10.52;;;;;;;;;;5074073;28;20036;-75
2022/03/24 02:27:33;;;;;;;20.60;11.98;;;;;;;;;;5070960;28;20052;-75
2022/03/24 02:29:59;;;;;;;25.23;10.85;;;;;;;;;;5069560;28;20320;-75
2022/03/24 02:32:25;;;;;;;27.80;11.55;;;;;;;;;;5070334;28;20044;-75
2022/03/24 02:34:52;;;;;;;21.05;10.88;;;;;;;;;;5071154;28;20075;-76
2022/03/24 02:37:22;;;;;;;22.77;11.23;;;;;;;;;;5072293;28;20051;-76
2022/03/24 02:39:52;;;;;;;18.10;10.15;;;;;;;;;;5070465;28;20099;-75
2022/03/24 02:42:20;;;;;;;17.70;9.65;;;;;;;;;;5069692;28;20045;-75
2022/03/24 02:44:48;;;;;;;25.33;11.25;;;;;;;;;;5069212;28;20075;-75
2022/03/24 02:47:14;;;;;;;25.08;12.23;;;;;;;;;;5066895;28;20044;-76
2022/03/24 02:49:41;;;;;;;26.15;11.95;;;;;;;;;;5069558;28;20044;-75
2022/03/24 02:52:08;;;;;;;22.52;10.80;;;;;;;;;;5069250;28;20045;-76
2022/03/24 02:54:35;;;;;;;19.75;9.23;;;;;;;;;;5073197;28;20090;-76
2022/03/24 02:57:01;;;;;;;27.48;11.50;;;;;;;;;;5069181;28;20148;-75
2022/03/24 02:59:28;;;;;;;25.17;12.35;;;;;;;;;;5072866;28;20044;-76
2022/03/24 03:01:55;;;;;;;24.65;10.23;;;;;;;;;;5071458;28;20170;-76
2022/03/24 03:04:22;;;;;;;21.02;10.52;;;;;;;;;;5074167;28;20044;-76
2022/03/24 03:06:48;;;;;;;26.20;11.57;;;;;;;;;;5067670;28;20043;-76
2022/03/24 03:09:18;;;;;;;25.10;12.40;;;;;;;;;;5073134;28;20056;-76
2022/03/24 03:11:45;;;;;;;23.17;10.82;;;;;;;;;;5071878;28;20080;-75
2022/03/24 03:14:12;;;;;;;24.42;11.75;;;;;;;;;;5069504;28;20049;-75
2022/03/24 03:16:42;;;;;;;18.92;10.80;;;;;;;;;;5064769;28;20041;-75
2022/03/24 03:19:08;;;;;;;21.90;10.38;;;;;;;;;;5074073;28;20045;-75
2022/03/24 03:21:39;;;;;;;21.25;10.23;;;;;;;;;;5070196;27;21703;-76
2022/03/24 03:24:05;;;;;;;20.98;10.73;;;;;;;;;;5075856;27;20044;-75
2022/03/24 03:26:32;;;;;;;20.90;10.30;;;;;;;;;;5094302;27;20086;-75
2022/03/24 03:29:00;;;;;;;20.33;10.48;;;;;;;;;;5088984;27;20040;-75
2022/03/24 03:31:28;;;;;;;21.13;10.35;;;;;;;;;;5073278;27;20048;-75
2022/03/24 03:33:54;;;;;;;25.40;10.25;;;;;;;;;;5073271;28;20048;-75
2022/03/24 03:36:21;;;;;;;19.92;9.88;;;;;;;;;;5069403;27;20070;-75
2022/03/24 03:38:48;;;;;;;21.13;10.70;;;;;;;;;;5089929;27;20040;-76
2022/03/24 03:41:17;;;;;;;22.08;9.10;;;;;;;;;;5070455;27;20063;-75
2022/03/24 03:43:44;;;;;;;20.05;9.48;;;;;;;;;;5092915;27;20044;-75
2022/03/24 03:46:10;;;;;;;19.85;10.25;;;;;;;;;;5075191;27;20050;-75
2022/03/24 03:48:37;;;;;;;20.20;10.23;;;;;;;;;;5071536;27;20111;-75
2022/03/24 03:51:04;;;;;;;24.55;12.13;;;;;;;;;;5080535;27;20615;-75
2022/03/24 03:53:30;;;;;;;23.15;10.85;;;;;;;;;;5074266;28;20037;-75
2022/03/24 03:55:56;;;;;;;21.30;10.65;;;;;;;;;;5089592;27;20037;-75
2022/03/24 03:58:23;;;;;;;21.83;10.25;;;;;;;;;;5073742;28;20044;-75
2022/03/24 04:00:58;;;;;;;19.77;9.60;;;;;;;;;;5080082;28;20044;-75
2022/03/24 04:03:29;;;;;;;24.42;11.23;;;;;;;;;;5074245;27;20028;-75
2022/03/24 04:05:56;;;;;;;24.98;10.00;;;;;;;;;;5073506;27;20131;-75
2022/03/24 04:08:27;;;;;;;25.20;11.63;;;;;;;;;;5092701;27;20040;-75
2022/03/24 04:10:53;;;;;;;21.90;9.93;;;;;;;;;;5092872;27;20048;-74
2022/03/24 04:13:19;;;;;;;25.90;11.30;;;;;;;;;;5069820;27;20048;-74
2022/03/24 04:15:46;;;;;;;18.45;10.68;;;;;;;;;;5092499;27;20143;-75
2022/03/24 04:18:13;;;;;;;23.17;11.10;;;;;;;;;;5071949;27;20135;-75
2022/03/24 04:20:39;;;;;;;21.38;11.50;;;;;;;;;;5091999;27;20036;-75
2022/03/24 04:23:05;;;;;;;20.48;9.30;;;;;;;;;;5067384;28;20537;-74
2022/03/24 04:25:32;;;;;;;22.25;10.07;;;;;;;;;;5075575;28;20128;-75
2022/03/24 04:27:58;;;;;;;23.58;11.02;;;;;;;;;;5071497;28;20040;-75
2022/03/24 04:30:26;;;;;;;20.58;9.23;;;;;;;;;;5094077;27;20040;-75
2022/03/24 04:32:52;;;;;;;22.85;11.30;;;;;;;;;;5075050;28;20479;-75
2022/03/24 04:35:18;;;;;;;17.80;9.93;;;;;;;;;;5072338;28;20037;-75
2022/03/24 04:37:44;;;;;;;21.33;10.45;;;;;;;;;;5075041;28;20851;-74
2022/03/24 04:40:11;;;;;;;24.40;11.52;;;;;;;;;;5089617;27;20063;-75
2022/03/24 04:42:37;;;;;;;26.58;11.85;;;;;;;;;;5091772;27;20521;-74
2022/03/24 04:45:04;;;;;;;23.83;10.38;;;;;;;;;;5076202;28;20036;-75
2022/03/24 04:47:30;;;;;;;21.55;10.18;;;;;;;;;;5092943;27;20040;-75
2022/03/24 04:49:56;;;;;;;18.58;9.50;;;;;;;;;;5095930;27;20048;-75
2022/03/24 04:52:22;;;;;;;24.55;10.10;;;;;;;;;;5071480;28;20064;-75
2022/03/24 04:54:50;;;;;;;27.88;10.25;;;;;;;;;;5072592;28;20040;-75
2022/03/24 04:57:16;;;;;;;22.70;10.00;;;;;;;;;;5074515;28;20032;-75
2022/03/24 04:59:43;;;;;;;23.60;10.20;;;;;;;;;;5074986;28;20040;-74
2022/03/24 05:02:12;;;;;;;24.33;10.32;;;;;;;;;;5070042;28;20039;-75
2022/03/24 05:04:38;;;;;;;25.83;12.20;;;;;;;;;;5078662;27;20117;-75
2022/03/24 05:07:04;;;;;;;23.77;11.93;;;;;;;;;;5091231;27;20043;-75
2022/03/24 05:09:31;;;;;;;25.65;9.57;;;;;;;;;;5071534;27;20067;-75
2022/03/24 05:11:57;;;;;;;24.77;10.45;;;;;;;;;;5071503;27;20561;-75
2022/03/24 05:14:23;;;;;;;21.73;11.07;;;;;;;;;;5087204;27;20042;-75
2022/03/24 05:16:49;;;;;;;20.98;11.07;;;;;;;;;;5086364;27;20035;-74
2022/03/24 05:19:15;;;;;;;23.00;10.77;;;;;;;;;;5068282;27;20234;-75
2022/03/24 05:21:41;;;;;;;23.10;11.13;;;;;;;;;;5071095;27;20028;-75
2022/03/24 05:24:07;;;;;;;23.52;11.57;;;;;;;;;;5076631;27;20047;-74
2022/03/24 05:26:33;;;;;;;21.42;10.77;;;;;;;;;;5088856;27;20046;-75
2022/03/24 05:28:59;;;;;;;24.13;11.63;;;;;;;;;;5073338;27;20052;-75
2022/03/24 05:31:26;;;;;;;19.75;10.07;;;;;;;;;;5075985;27;20564;-75
2022/03/24 05:33:52;;;;;;;19.70;10.38;;;;;;;;;;5072330;27;20051;-75
2022/03/24 05:36:19;;;;;;;22.88;11.98;;;;;;;;;;5067583;27;20199;-75
2022/03/24 05:38:45;;;;;;;22.70;11.38;;;;;;;;;;5075226;27;20216;-75
2022/03/24 05:41:12;;;;;;;17.55;10.15;;;;;;;;;;5075041;27;20047;-75
2022/03/24 05:43:39;;;;;;;22.52;10.57;;;;;;;;;;5084249;27;20075;-75
2022/03/24 05:46:05;;;;;;;26.55;10.95;;;;;;;;;;5066681;27;20532;-75
2022/03/24 05:48:33;;;;;;;23.08;10.45;;;;;;;;;;5069360;27;20040;-75
2022/03/24 05:51:00;;;;;;;16.80;10.45;;;;;;;;;;5067471;28;20040;-75
2022/03/24 05:53:26;;;;;;;22.50;10.18;;;;;;;;;;5087025;27;20046;-75
2022/03/24 05:55:52;;;;;;;24.23;11.77;;;;;;;;;;5074624;28;20050;-75
2022/03/24 05:58:20;;;;;;;25.58;11.40;;;;;;;;;;5072396;28;20037;-75
2022/03/24 06:00:47;;;;;;;26.92;11.18;;;;;;;;;;5090400;27;20091;-75
2022/03/24 06:03:15;;;;;;;20.63;11.00;;;;;;;;;;5074317;28;20704;-75
2022/03/24 06:05:41;;;;;;;21.33;12.05;;;;;;;;;;5092484;27;20987;-75
2022/03/24 06:08:09;;;;;;;24.45;11.05;;;;;;;;;;5072215;28;20037;-77
2022/03/24 06:10:37;;;;;;;22.70;11.20;;;;;;;;;;5079145;27;20044;-78
2022/03/24 06:13:04;;;;;;;29.08;12.10;;;;;;;;;;5070517;28;20119;-74
2022/03/24 06:15:31;;;;;;;20.42;9.95;;;;;;;;;;5072968;28;20525;-74
2022/03/24 06:17:57;;;;;;;17.92;9.05;;;;;;;;;;5077439;28;20139;-74
2022/03/24 06:20:23;;;;;;;25.90;11.90;;;;;;;;;;5074856;28;21012;-74
2022/03/24 06:22:50;;;;;;;19.05;9.85;;;;;;;;;;5077617;28;20047;-73
2022/03/24 06:25:16;;;;;;;23.35;10.20;;;;;;;;;;5080535;28;20041;-73
2022/03/24 06:27:42;;;;;;;22.20;11.80;;;;;;;;;;5089593;27;20048;-74
2022/03/24 06:30:09;;;;;;;24.58;10.95;;;;;;;;;;5083072;28;20508;-73
2022/03/24 06:32:35;;;;;;;20.80;9.75;;;;;;;;;;5073752;27;20561;-74
2022/03/24 06:35:03;;;;;;;18.80;9.80;;;;;;;;;;5091200;27;20032;-74
2022/03/24 06:37:30;;;;;;;21.35;11.90;;;;;;;;;;5093731;27;20547;-74
2022/03/24 06:39:56;;;;;;;23.42;12.00;;;;;;;;;;5073463;28;20533;-74
2022/03/24 06:42:23;;;;;;;18.67;9.70;;;;;;;;;;5076915;27;20044;-75
2022/03/24 06:44:49;;;;;;;23.80;11.27;;;;;;;;;;5073377;28;20051;-74
2022/03/24 06:47:15;;;;;;;24.27;9.23;;;;;;;;;;5066524;28;20040;-73
2022/03/24 06:49:42;;;;;;;24.75;11.45;;;;;;;;;;5074930;27;20155;-74
2022/03/24 06:52:08;;;;;;;26.52;11.70;;;;;;;;;;5091113;27;20043;-74
2022/03/24 06:54:34;;;;;;;23.30;9.77;;;;;;;;;;5081134;27;20046;-74
2022/03/24 06:57:00;;;;;;;22.77;10.27;;;;;;;;;;5072702;27;20048;-74
2022/03/24 06:59:27;;;;;;;21.38;10.38;;;;;;;;;;5095409;27;20130;-74
2022/03/24 07:01:53;;;;;;;20.17;9.77;;;;;;;;;;5069874;27;20043;-74
2022/03/24 07:04:19;;;;;;;21.13;9.85;;;;;;;;;;5077462;27;20040;-74
2022/03/24 07:06:45;;;;;;;22.25;10.18;;;;;;;;;;5096703;27;20135;-74
2022/03/24 07:09:11;;;;;;;28.85;10.82;;;;;;;;;;5073733;27;20044;-74
2022/03/24 07:11:37;;;;;;;18.02;9.23;;;;;;;;;;5074284;27;20079;-74
2022/03/24 07:14:04;;;;;;;18.10;9.75;;;;;;;;;;5076609;27;20039;-74
2022/03/24 07:16:30;;;;;;;22.42;9.77;;;;;;;;;;5075805;28;20562;-74
2022/03/24 07:18:56;;;;;;;20.15;10.02;;;;;;;;;;5075597;28;20047;-74
2022/03/24 07:21:22;;;;;;;21.45;9.75;;;;;;;;;;5091036;27;20098;-74
2022/03/24 07:23:48;;;;;;;26.88;10.45;;;;;;;;;;5096357;27;20053;-74
2022/03/24 07:26:14;;;;;;;21.67;10.27;;;;;;;;;;5072888;28;20074;-74
2022/03/24 07:28:41;;;;;;;20.45;10.20;;;;;;;;;;5070962;28;20145;-75
2022/03/24 07:31:19;;;;;;;18.67;9.52;;;;;;;;;;5095579;27;20047;-75
2022/03/24 07:33:45;;;;;;;19.75;10.10;;;;;;;;;;5078267;28;20404;-74
2022/03/24 07:36:11;;;;;;;21.45;10.55;;;;;;;;;;5087267;27;20048;-74
2022/03/24 07:38:37;;;;;;;26.38;10.82;;;;;;;;;;5073764;27;20104;-73
2022/03/24 07:41:04;;;;;;;25.35;10.55;;;;;;;;;;5073425;28;20036;-74
2022/03/24 07:43:30;;;;;;;22.67;11.18;;;;;;;;;;5068601;28;20510;-74
2022/03/24 07:45:56;;;;;;;20.08;9.40;;;;;;;;;;5071799;28;20108;-73
2022/03/24 07:48:25;;;;;;;23.30;10.25;;;;;;;;;;5070531;28;20064;-73
2022/03/24 07:50:52;;;;;;;24.75;10.70;;;;;;;;;;5091291;27;20430;-73
2022/03/24 07:53:18;;;;;;;20.60;11.23;;;;;;;;;;5071765;28;20222;-74
2022/03/24 07:55:45;;;;;;;23.30;10.85;;;;;;;;;;5086988;27;20049;-73
2022/03/24 07:58:12;;;;;;;27.63;10.35;;;;;;;;;;5074915;28;20049;-73
2022/03/24 08:00:39;;;;;;;22.15;11.23;;;;;;;;;;5078350;28;20123;-74
2022/03/24 08:03:09;;;;;;;39.28;11.15;;;;;;;;;;5093700;27;20044;-74
2022/03/24 08:05:35;;;;;;;22.05;9.43;;;;;;;;;;5092106;27;20045;-74
2022/03/24 08:08:04;;;;;;;20.63;10.32;;;;;;;;;;5085747;27;20075;-73
2022/03/24 08:10:30;;;;;;;19.70;9.57;;;;;;;;;;5078161;27;20032;-74
2022/03/24 08:12:56;;;;;;;20.20;9.77;;;;;;;;;;5070694;28;20044;-74
2022/03/24 08:15:22;;;;;;;21.17;10.85;;;;;;;;;;5091629;27;20581;-74
2022/03/24 08:17:48;;;;;;;24.52;11.88;;;;;;;;;;5076008;28;20051;-73
2022/03/24 08:20:15;;;;;;;25.58;12.63;;;;;;;;;;5074470;27;20036;-73
2022/03/24 08:22:41;;;;;;;22.23;10.98;;;;;;;;;;5094534;27;20582;-73
2022/03/24 08:25:09;;;;;;;25.98;11.90;;;;;;;;;;5092564;27;20044;-74
2022/03/24 08:27:36;;;;;;;24.45;10.20;;;;;;;;;;5084629;27;20128;-74
2022/03/24 08:30:03;;;;;;;22.63;10.65;;;;;;;;;;5090128;27;20048;-74
2022/03/24 08:32:29;;;;;;;23.77;10.93;;;;;;;;;;5071451;28;20118;-74
2022/03/24 08:34:56;;;;;;;21.27;9.77;;;;;;;;;;5073984;28;20062;-73
2022/03/24 08:37:22;;;;;;;24.10;11.10;;;;;;;;;;5074659;27;20119;-73
2022/03/24 08:39:48;;;;;;;23.75;9.93;;;;;;;;;;5072680;27;20634;-73
2022/03/24 08:42:14;;;;;;;21.27;9.82;;;;;;;;;;5097887;27;20077;-73
2022/03/24 08:44:40;;;;;;;22.90;9.52;;;;;;;;;;5075281;27;20036;-72
2022/03/24 08:47:06;;;;;;;19.98;11.35;;;;;;;;;;5089026;27;20036;-74
2022/03/24 08:49:32;;;;;;;17.92;9.50;;;;;;;;;;5092890;27;20097;-73
2022/03/24 08:51:59;;;;;;;22.75;11.13;;;;;;;;;;5074317;27;20040;-73
2022/03/24 08:54:25;;;;;;;21.63;11.23;;;;;;;;;;5088456;27;20044;-73
2022/03/24 08:56:51;;;;;;;25.15;10.20;;;;;;;;;;5093574;27;20048;-73
2022/03/24 08:59:18;;;;;;;25.23;10.65;;;;;;;;;;5070858;27;20113;-73
2022/03/24 09:01:44;;;;;;;19.85;9.48;;;;;;;;;;5075650;28;20047;-73
2022/03/24 09:04:10;;;;;;;19.92;9.10;;;;;;;;;;5086950;27;20041;-73
2022/03/24 09:06:37;;;;;;;15.05;8.90;;;;;;;;;;5073874;27;20054;-73
2022/03/24 09:09:03;;;;;;;19.10;8.63;;;;;;;;;;5093614;27;20040;-74
2022/03/24 09:11:29;;;;;;;18.50;9.02;;;;;;;;;;5076507;28;20032;-73
2022/03/24 09:13:56;;;;;;;23.80;9.23;;;;;;;;;;5094354;27;20541;-73
2022/03/24 09:16:23;;;;;;;26.00;11.02;;;;;;;;;;5072643;28;20115;-73
2022/03/24 09:18:50;;;;;;;17.00;7.30;;;;;;;;;;5070445;28;20137;-73
2022/03/24 09:21:16;;;;;;;17.10;8.93;;;;;;;;;;5098385;27;20044;-73
2022/03/24 09:23:43;;;;;;;23.50;8.60;;;;;;;;;;5095175;27;20052;-73
2022/03/24 09:26:12;;;;;;;22.38;10.43;;;;;;;;;;5089700;27;20063;-73
2022/03/24 09:28:38;;;;;;;19.02;8.75;;;;;;;;;;5082917;28;20062;-74
2022/03/24 09:31:05;;;;;;;21.13;10.68;;;;;;;;;;5106312;27;20063;-73
2022/03/24 09:33:31;;;;;;;23.20;8.50;;;;;;;;;;5079635;28;20045;-73
2022/03/24 09:35:57;;;;;;;15.10;8.60;;;;;;;;;;5077525;28;20040;-74
2022/03/24 09:38:23;;;;;;;20.45;8.45;;;;;;;;;;5100976;27;20085;-73
2022/03/24 09:40:51;;;;;;;16.33;8.90;;;;;;;;;;5080697;28;20139;-72
2022/03/24 09:43:18;;;;;;;16.83;8.45;;;;;;;;;;5091831;27;20079;-73
2022/03/24 09:45:47;;;;;;;18.80;8.20;;;;;;;;;;5094127;27;20040;-74
2022/03/24 09:48:16;;;;;;;20.83;10.10;;;;;;;;;;5078310;28;20154;-73
2022/03/24 09:50:47;;;;;;;20.02;9.43;;;;;;;;;;5078536;28;20086;-73
2022/03/24 09:53:15;;;;;;;21.73;8.90;;;;;;;;;;5077548;28;20571;-74
2022/03/24 09:55:42;;;;;;;22.25;8.45;;;;;;;;;;5077702;28;20040;-73
2022/03/24 09:58:08;;;;;;;19.27;9.38;;;;;;;;;;5077119;28;20032;-73
2022/03/24 10:00:36;;;;;;;16.55;8.85;;;;;;;;;;5074299;28;20128;-73
2022/03/24 10:03:18;;;;;;;24.42;10.98;;;;;;;;;;5088206;27;20048;-73
2022/03/24 10:05:58;;;;;;;20.60;8.98;;;;;;;;;;5086469;27;20045;-74
2022/03/24 10:08:25;;;;;;;20.13;8.43;;;;;;;;;;5076134;28;20418;-74
2022/03/24 10:10:56;;;;;;;17.92;9.63;;;;;;;;;;5096216;27;20043;-74
2022/03/24 10:13:41;;;;;;;19.55;8.98;;;;;;;;;;5087753;27;20068;-73
2022/03/24 10:16:08;;;;;;;21.00;7.90;;;;;;;;;;5072083;28;20040;-73
2022/03/24 10:18:34;;;;;;;19.15;10.23;;;;;;;;;;5081531;27;20033;-74
2022/03/24 10:21:03;;;;;;;19.55;9.38;;;;;;;;;;5072720;28;20474;-74
2022/03/24 10:23:33;;;;;;;18.52;9.15;;;;;;;;;;5074011;28;20049;-73
2022/03/24 10:26:05;;;;;;;20.75;9.23;;;;;;;;;;5072489;28;21003;-73
2022/03/24 10:28:31;;;;;;;23.13;10.43;;;;;;;;;;5071816;28;20190;-72
2022/03/24 10:30:59;;;;;;;22.52;8.55;;;;;;;;;;5088589;27;20052;-74
2022/03/24 10:33:30;;;;;;;23.13;8.80;;;;;;;;;;5071134;28;20060;-74
2022/03/24 10:36:16;;;;;;;22.02;9.43;;;;;;;;;;5076997;28;20040;-74
2022/03/24 10:38:43;;;;;;;19.73;8.77;;;;;;;;;;5076792;27;20044;-73
2022/03/24 10:41:19;;;;;;;21.13;9.20;;;;;;;;;;5093584;27;20055;-74
2022/03/24 10:43:47;;;;;;;18.45;9.27;;;;;;;;;;5094744;27;20123;-74
2022/03/24 10:46:21;;;;;;;17.40;9.20;;;;;;;;;;5077035;28;20037;-73
2022/03/24 10:48:47;;;;;;;17.40;9.10;;;;;;;;;;5078545;27;20766;-73
2022/03/24 10:51:29;;;;;;;15.70;8.55;;;;;;;;;;5076438;27;20520;-74
2022/03/24 10:53:55;;;;;;;;;;;;;;;;;;5080984;28;20059;-74
2022/03/24 10:56:31;;;;;;;11.27;7.65;;;;;;;;;;5093323;27;19920;-74
2022/03/24 10:59:03;;;;;;;16.25;8.48;;;;;;;;;;5077875;28;20094;-73
2022/03/24 11:01:29;;;;;;;;;;;;;;;;;;5081083;28;20036;-74
2022/03/24 11:03:56;;;;;;;24.05;7.97;;;;;;;;;;5074702;28;19924;-73
2022/03/24 11:06:27;;;;;;;21.70;9.63;;;;;;;;;;5072385;28;20036;-74
2022/03/24 11:08:54;;;;;;;17.77;9.73;;;;;;;;;;5075769;28;20044;-74
2022/03/24 11:11:21;;;;;;;18.98;8.95;;;;;;;;;;5076463;28;20060;-73
2022/03/24 11:13:54;;;;;;;17.48;9.25;;;;;;;;;;5072253;28;20091;-73
2022/03/24 11:16:22;;;;;;;13.40;8.38;;;;;;;;;;5088110;27;20512;-74
2022/03/24 11:18:49;;;;;;;15.40;8.07;;;;;;;;;;5099391;27;20048;-74
2022/03/24 11:21:18;;;;;;;14.95;7.55;;;;;;;;;;5079975;28;20044;-73
2022/03/24 11:23:45;;;;;;;19.98;9.55;;;;;;;;;;5065521;27;20820;-74
2022/03/24 11:26:12;;;;;;;12.25;6.53;;;;;;;;;;5075991;28;20039;-74
2022/03/24 11:28:39;;;;;;;18.83;9.65;;;;;;;;;;5095915;27;20044;-73
2022/03/24 11:31:09;;;;;;;14.82;7.47;;;;;;;;;;5082081;28;20055;-74
2022/03/24 11:33:40;;;;;;;13.82;6.50;;;;;;;;;;5077241;28;20050;-74
2022/03/24 11:36:07;;;;;;;15.82;7.32;;;;;;;;;;5071728;27;20533;-74
2022/03/24 11:38:34;;;;;;;14.88;8.43;;;;;;;;;;5070807;27;20033;-74
2022/03/24 11:41:04;;;;;;;18.75;7.72;;;;;;;;;;5094237;27;20087;-74
2022/03/24 11:43:31;;;;;;;13.38;6.75;;;;;;;;;;5070103;27;20592;-74
2022/03/24 11:46:04;;;;;;;15.57;7.35;;;;;;;;;;5069333;27;20546;-74
2022/03/24 11:48:41;;;;;;;16.08;7.22;;;;;;;;;;5088885;27;20043;-73
2022/03/24 11:51:10;;;;;;;15.43;7.63;;;;;;;;;;5080477;27;20055;-74
2022/03/24 11:53:38;;;;;;;11.55;6.60;;;;;;;;;;5078190;27;20040;-74
2022/03/24 11:56:05;;;;;;;13.45;7.78;;;;;;;;;;5077677;27;20033;-73
2022/03/24 11:58:41;;;;;;;20.08;8.52;;;;;;;;;;5076657;27;20626;-74
2022/03/24 12:01:19;;;;;;;13.98;7.32;;;;;;;;;;5076505;27;20127;-74
2022/03/24 12:03:52;;;;;;;14.95;7.15;;;;;;;;;;5075272;28;20048;-74
2022/03/24 12:06:19;;;;;;;14.60;7.30;;;;;;;;;;5074653;28;20040;-74
2022/03/24 12:08:45;;;;;;;15.95;6.65;;;;;;;;;;5075316;28;20430;-74
2022/03/24 12:11:30;;;;;;;13.63;6.90;;;;;;;;;;5075709;28;20993;-74
2022/03/24 12:13:56;;;;;;;15.73;7.00;;;;;;;;;;5087218;27;20922;-74
2022/03/24 12:16:24;;;;;;;15.90;7.90;;;;;;;;;;5073363;28;20052;-74
2022/03/24 12:18:50;;;;;;;15.10;6.80;;;;;;;;;;5075210;27;20029;-74
2022/03/24 12:21:29;;;;;;;15.18;7.15;;;;;;;;;;5081842;27;20040;-74
2022/03/24 12:24:16;;;;;;;17.00;7.70;;;;;;;;;;5088801;27;20900;-74
2022/03/24 12:26:48;;;;;;;19.67;9.57;;;;;;;;;;5092989;27;20051;-74
2022/03/24 12:29:16;;;;;;;13.45;7.47;;;;;;;;;;5068372;28;20082;-74
2022/03/24 12:32:02;;;;;;;13.32;7.30;;;;;;;;;;5075351;28;20036;-74
2022/03/24 12:34:43;;;;;;;13.05;6.70;;;;;;;;;;5074945;27;20044;-74
2022/03/24 12:37:29;;;;;;;14.00;7.78;;;;;;;;;;5071133;27;20130;-74
2022/03/24 12:40:09;;;;;;;13.93;7.22;;;;;;;;;;5074784;27;20131;-74
2022/03/24 12:42:47;;;;;;;14.20;7.00;;;;;;;;;;5073814;28;20044;-74
2022/03/24 12:45:33;;;;;;;15.20;6.07;;;;;;;;;;5094178;27;20497;-74
2022/03/24 12:48:07;;;;;;;10.13;5.32;;;;;;;;;;5074588;27;20082;-74
2022/03/24 12:50:43;;;;;;;12.55;6.22;;;;;;;;;;5086866;27;20040;-75
2022/03/24 12:53:10;;;;;;;14.43;6.25;;;;;;;;;;5095527;27;20549;-74
2022/03/24 12:55:37;;;;;;;13.32;6.95;;;;;;;;;;5068413;28;20068;-74
2022/03/24 12:58:05;;;;;;;16.48;6.72;;;;;;;;;;5076936;28;20040;-74
2022/03/24 13:00:35;;;;;;;14.27;7.15;;;;;;;;;;5076942;28;20036;-74
2022/03/24 13:03:02;;;;;;;10.73;5.70;;;;;;;;;;5073733;28;20045;-74
2022/03/24 13:05:30;;;;;;;12.02;6.03;;;;;;;;;;5079940;28;20081;-74
2022/03/24 13:07:56;;;;;;;13.02;6.47;;;;;;;;;;5075632;28;20585;-75
2022/03/24 13:10:24;;;;;;;14.35;7.60;;;;;;;;;;5070927;28;20037;-74
2022/03/24 13:12:51;;;;;;;10.85;6.03;;;;;;;;;;5067142;28;20124;-74
2022/03/24 13:15:19;;;;;;;9.88;5.35;;;;;;;;;;5072430;28;20079;-74
2022/03/24 13:17:48;;;;;;;15.02;7.07;;;;;;;;;;5069997;28;20170;-74
2022/03/24 13:20:15;;;;;;;11.60;5.57;;;;;;;;;;5087945;27;20040;-74
2022/03/24 13:22:41;;;;;;;13.77;6.43;;;;;;;;;;5077025;28;20045;-74
2022/03/24 13:25:11;;;;;;;13.65;6.95;;;;;;;;;;5089174;27;20127;-74
2022/03/24 13:27:39;;;;;;;12.80;7.25;;;;;;;;;;5093064;27;20101;-74
2022/03/24 13:30:09;;;;;;;14.35;7.32;;;;;;;;;;5085672;27;20036;-74
2022/03/24 13:32:35;;;;;;;11.32;6.35;;;;;;;;;;5070787;28;20093;-74
2022/03/24 13:35:03;;;;;;;13.65;7.38;;;;;;;;;;5100310;27;20099;-75
2022/03/24 13:37:40;;;;;;;13.55;6.30;;;;;;;;;;5080017;27;20036;-74
2022/03/24 13:40:08;;;;;;;18.45;6.30;;;;;;;;;;5073526;28;20040;-74
2022/03/24 13:42:35;;;;;;;15.52;8.25;;;;;;;;;;5073735;28;20964;-74
2022/03/24 13:45:01;;;;;;;10.98;6.05;;;;;;;;;;5082980;27;20045;-74
2022/03/24 13:47:28;;;;;;;12.32;6.65;;;;;;;;;;5095606;27;20044;-75
2022/03/24 13:49:56;;;;;;;15.30;5.75;;;;;;;;;;5070472;28;20527;-74
2022/03/24 13:52:41;;;;;;;12.13;6.70;;;;;;;;;;5072160;28;20047;-75
2022/03/24 13:55:26;;;;;;;9.73;5.47;;;;;;;;;;5074346;27;20575;-75
2022/03/24 13:57:55;;;;;;;8.60;4.88;;;;;;;;;;5085007;27;20044;-74
2022/03/24 14:00:25;;;;;;;14.57;5.75;;;;;;;;;;5091898;27;20260;-75
2022/03/24 14:02:55;;;;;;;10.45;5.60;;;;;;;;;;5076804;27;20032;-75
2022/03/24 14:05:22;;;;;;;14.45;6.32;;;;;;;;;;5075765;28;20605;-74
2022/03/24 14:08:00;;;;;;;11.18;5.88;;;;;;;;;;5064655;28;20037;-75
2022/03/24 14:10:47;;;;;;;11.63;4.75;;;;;;;;;;5088064;27;20048;-73
2022/03/24 14:13:16;;;;;;;11.00;4.88;;;;;;;;;;5070154;27;20497;-75
2022/03/24 14:15:43;;;;;;;9.13;4.93;;;;;;;;;;5072141;27;20503;-74
2022/03/24 14:18:19;;;;;;;15.73;5.82;;;;;;;;;;5076480;27;20044;-74
2022/03/24 14:20:48;;;;;;;9.10;4.32;;;;;;;;;;5076882;27;20480;-74
2022/03/24 14:23:26;;;;;;;9.02;4.57;;;;;;;;;;5074138;27;20212;-75
2022/03/24 14:25:53;;;;;;;11.50;4.60;;;;;;;;;;5071280;28;20055;-75
2022/03/24 14:28:42;;;;;;;9.70;5.28;;;;;;;;;;5078272;28;20048;-74
2022/03/24 14:31:16;;;;;;;11.15;4.57;;;;;;;;;;5079050;27;20232;-74